KMEV/MEV METAR and TAF weather

Enter ICAO airport designator
Station Type Date Time Source
KMEV METAR 2019/02/17 16:10 UTC NOAA

KMEV 171610Z AUTO 34008KT 7SM -SN FEW008 FEW025 BKN032 M04/M05 A2982 RMK AO2


Station Type Date Time Source
KMEV Decoded METAR 2019/02/17 16:10 UTC NOAA

Station name not available
Feb 17, 2019 - 11:10 AM EST / 2019.02.17 1610 UTC
Wind: from the NNW (340 degrees) at 9 MPH (8 KT):0
Visibility: 7 mile(s):0
Sky conditions: mostly cloudy
Weather: light snow
Temperature: 24 F (-4 C)
Windchill: 14 F (-10 C):1
Dew Point: 23 F (-5 C)
Relative Humidity: 92%
Pressure (altimeter): 29.82 in. Hg (1009 hPa)
ob: KMEV 171610Z AUTO 34008KT 7SM -SN FEW008 FEW025 BKN032 M04/M05 A2982 RMK AO2
cycle: 16

Station Type Date Time Source
KMEV TAF UTC NOAA

Error!


Example: see airport list